createdAt,value
2023-01-17T00:01:39.662Z,49.50
2023-01-17T00:04:53.021Z,43.17
2023-01-17T00:08:06.118Z,54.67
2023-01-17T00:11:04.465Z,47.63
2023-01-17T00:14:02.196Z,54.20
2023-01-17T00:17:01.849Z,66.70
2023-01-17T00:20:15.034Z,68.70
2023-01-17T00:27:00.883Z,81.10
2023-01-17T00:29:58.742Z,54.43
2023-01-17T00:32:56.644Z,54.03
2023-01-17T00:35:56.712Z,61.40
2023-01-17T00:38:54.490Z,58.93
2023-01-17T00:41:52.154Z,109.87
2023-01-17T00:45:05.290Z,105.37
2023-01-17T00:48:18.461Z,99.90
2023-01-17T00:51:32.337Z,69.17
2023-01-17T00:54:45.468Z,97.77
2023-01-17T00:57:58.924Z,92.73
2023-01-17T01:01:12.104Z,68.83
2023-01-17T01:04:25.356Z,88.20
2023-01-17T01:07:38.399Z,76.50
2023-01-17T01:10:52.501Z,101.60
2023-01-17T01:14:05.737Z,74.83
2023-01-17T01:17:19.022Z,79.47
2023-01-17T01:20:32.292Z,84.03
2023-01-17T01:23:45.922Z,54.33
2023-01-17T01:27:03.596Z,75.60
2023-01-17T01:30:17.366Z,94.93
2023-01-17T01:33:19.154Z,63.13
2023-01-17T01:36:17.051Z,83.17
2023-01-17T01:39:14.805Z,58.50
2023-01-17T01:42:17.163Z,71.87
2023-01-17T01:45:21.799Z,76.80
2023-01-17T01:48:38.735Z,54.03
2023-01-17T01:51:43.364Z,46.63
2023-01-17T01:54:47.992Z,58.97
2023-01-17T01:57:51.512Z,63.37
2023-01-17T02:00:49.842Z,76.03
2023-01-17T02:03:48.277Z,84.83
2023-01-17T02:06:52.245Z,119.50
2023-01-17T02:09:50.662Z,84.20
2023-01-17T02:12:49.713Z,108.90
2023-01-17T02:16:02.250Z,80.77
2023-01-17T02:19:27.478Z,86.05
2023-01-17T02:22:51.340Z,116.67
2023-01-17T02:26:24.533Z,79.90
2023-01-17T02:30:00.237Z,91.00
2023-01-17T02:33:20.008Z,110.33
2023-01-17T02:36:26.777Z,80.40
2023-01-17T02:39:33.483Z,91.20
2023-01-17T02:42:38.400Z,86.90
2023-01-17T02:45:36.263Z,93.47
2023-01-17T02:48:37.405Z,104.40
2023-01-17T02:52:11.377Z,64.50
2023-01-17T02:55:44.190Z,66.60
2023-01-17T02:59:07.276Z,78.50
2023-01-17T03:02:18.731Z,67.93
2023-01-17T03:05:38.709Z,68.93
2023-01-17T03:08:36.467Z,79.10
2023-01-17T03:11:34.907Z,80.60
2023-01-17T03:14:32.760Z,79.23
2023-01-17T03:17:33.712Z,72.10
2023-01-17T03:20:31.468Z,83.00
2023-01-17T03:23:29.317Z,85.17
2023-01-17T03:26:27.118Z,82.60
2023-01-17T03:29:25.222Z,70.17
2023-01-17T03:32:22.961Z,75.53
2023-01-17T03:35:21.118Z,67.73
2023-01-17T03:38:19.926Z,78.17
2023-01-17T03:41:17.763Z,70.33
2023-01-17T03:44:15.575Z,102.27
2023-01-17T03:47:13.580Z,70.97
2023-01-17T03:50:13.597Z,97.23
2023-01-17T03:53:11.468Z,74.77
2023-01-17T03:56:09.822Z,119.40
2023-01-17T03:59:07.637Z,95.93
2023-01-17T04:02:05.469Z,103.97
2023-01-17T04:05:03.628Z,94.27
2023-01-17T04:08:01.846Z,93.60
2023-01-17T04:10:59.708Z,106.37
2023-01-17T04:13:57.412Z,106.70
2023-01-17T04:16:55.978Z,104.30
2023-01-17T04:19:53.980Z,112.63
2023-01-17T04:22:51.790Z,113.23
2023-01-17T04:25:49.524Z,104.40
2023-01-17T04:28:47.465Z,123.33
2023-01-17T04:31:45.230Z,93.87
2023-01-17T04:34:43.482Z,93.40
2023-01-17T04:37:41.300Z,92.17
2023-01-17T04:40:39.227Z,93.97
2023-01-17T04:43:37.861Z,90.67
2023-01-17T04:46:35.769Z,105.63
2023-01-17T04:49:34.527Z,107.07
2023-01-17T04:52:32.456Z,111.07
2023-01-17T04:55:30.248Z,115.40
2023-01-17T04:58:28.269Z,102.73
2023-01-17T05:01:26.278Z,106.77
2023-01-17T05:04:24.394Z,93.37
2023-01-17T05:07:22.113Z,99.00
2023-01-17T05:10:19.949Z,102.57
2023-01-17T05:13:18.044Z,120.07
2023-01-17T05:16:19.470Z,120.10
2023-01-17T05:19:17.601Z,110.43
2023-01-17T05:22:16.637Z,109.20
2023-01-17T05:25:14.602Z,116.33
2023-01-17T05:28:13.781Z,120.20
2023-01-17T05:31:11.702Z,130.63
2023-01-17T05:34:09.654Z,148.00
2023-01-17T05:37:07.383Z,137.47
2023-01-17T05:40:06.735Z,135.73
2023-01-17T05:43:05.230Z,142.47
2023-01-17T05:46:03.168Z,127.07
2023-01-17T05:49:00.880Z,146.83
2023-01-17T05:51:59.024Z,145.33
2023-01-17T05:54:56.705Z,145.17
2023-01-17T05:57:55.345Z,129.60
2023-01-17T06:00:55.695Z,142.07
2023-01-17T06:03:53.552Z,147.10
2023-01-17T06:06:51.434Z,151.13
2023-01-17T06:09:49.268Z,149.30
2023-01-17T06:12:47.846Z,153.77
2023-01-17T06:15:45.688Z,149.50
2023-01-17T06:18:43.634Z,158.67
2023-01-17T06:21:41.436Z,163.77
2023-01-17T06:24:39.304Z,139.17
2023-01-17T06:27:37.141Z,170.10
2023-01-17T06:30:35.299Z,158.27
2023-01-17T06:33:33.170Z,160.10
2023-01-17T06:36:32.891Z,154.83
2023-01-17T06:39:30.689Z,175.93
2023-01-17T06:42:28.390Z,155.30
2023-01-17T06:45:26.458Z,135.23
2023-01-17T06:48:24.191Z,153.63
2023-01-17T06:51:22.141Z,144.30
2023-01-17T06:54:23.174Z,161.07
2023-01-17T06:57:21.087Z,146.70
2023-01-17T07:00:19.195Z,146.13
2023-01-17T07:03:27.633Z,159.23
2023-01-17T07:06:29.252Z,146.90
2023-01-17T07:09:27.059Z,146.07
2023-01-17T07:12:25.194Z,128.47
2023-01-17T07:15:22.987Z,149.10
2023-01-17T07:18:23.633Z,163.60
2023-01-17T07:21:21.480Z,174.47
2023-01-17T07:24:20.363Z,186.10
2023-01-17T07:27:18.431Z,196.53
2023-01-17T07:30:16.652Z,203.37
2023-01-17T07:33:15.088Z,216.63
2023-01-17T07:36:13.847Z,213.00
2023-01-17T07:39:11.870Z,221.27
2023-01-17T07:42:09.649Z,219.80
2023-01-17T07:45:08.243Z,222.87
2023-01-17T07:48:05.984Z,225.20
2023-01-17T07:51:03.837Z,212.63
2023-01-17T07:54:01.630Z,224.97
2023-01-17T07:57:00.521Z,203.97
2023-01-17T07:59:58.275Z,212.83
2023-01-17T08:03:00.302Z,215.07
2023-01-17T08:05:58.205Z,219.57
2023-01-17T08:08:59.351Z,205.87
2023-01-17T08:11:57.080Z,215.20
2023-01-17T08:14:54.922Z,225.33
2023-01-17T08:17:54.374Z,211.37
2023-01-17T08:20:52.285Z,213.00
2023-01-17T08:23:50.972Z,213.50
2023-01-17T08:26:48.828Z,212.23
2023-01-17T08:29:48.802Z,233.23
2023-01-17T08:32:46.721Z,230.60
2023-01-17T08:36:02.651Z,221.53
2023-01-17T08:39:00.571Z,224.07
2023-01-17T08:41:58.261Z,228.33
2023-01-17T08:44:56.060Z,234.47
2023-01-17T08:47:54.166Z,208.87
2023-01-17T08:50:52.286Z,249.50
2023-01-17T08:53:49.979Z,215.10
2023-01-17T08:56:48.357Z,222.00
2023-01-17T08:59:46.159Z,221.53
2023-01-17T09:02:44.067Z,215.47
2023-01-17T09:05:41.847Z,234.27
2023-01-17T09:08:40.566Z,235.10
2023-01-17T09:11:39.280Z,225.83
2023-01-17T09:14:38.352Z,204.27
2023-01-17T09:17:36.137Z,237.00
2023-01-17T09:20:33.929Z,231.93
2023-01-17T09:23:31.630Z,209.73
2023-01-17T09:26:30.553Z,219.63
2023-01-17T09:29:29.040Z,242.10
2023-01-17T09:32:26.905Z,249.93
2023-01-17T09:35:24.806Z,226.07
2023-01-17T09:38:24.457Z,220.67
2023-01-17T09:41:29.139Z,217.60
2023-01-17T09:44:39.455Z,220.63
2023-01-17T09:47:47.298Z,228.70
2023-01-17T09:50:51.199Z,208.48
2023-01-17T09:53:49.637Z,203.30
2023-01-17T09:56:55.816Z,219.60
2023-01-17T10:00:08.805Z,211.37
2023-01-17T10:03:28.381Z,218.70
2023-01-17T10:06:55.382Z,236.70
2023-01-17T10:10:16.183Z,195.30
2023-01-17T10:13:42.423Z,227.80
2023-01-17T10:16:58.808Z,227.77
2023-01-17T10:20:18.422Z,224.57
2023-01-17T10:23:38.445Z,246.27
2023-01-17T10:26:37.359Z,230.83
2023-01-17T10:29:36.658Z,257.00
2023-01-17T10:32:36.196Z,230.20
2023-01-17T10:35:37.759Z,238.53
2023-01-17T10:38:41.003Z,251.73
2023-01-17T10:41:43.023Z,236.00
2023-01-17T10:45:06.414Z,208.37
2023-01-17T10:48:26.765Z,231.20
2023-01-17T10:51:44.967Z,179.90
2023-01-17T10:55:04.520Z,227.97
2023-01-17T10:58:03.532Z,242.53
2023-01-17T11:01:06.797Z,204.47
2023-01-17T11:04:12.332Z,222.45
2023-01-17T11:07:14.297Z,231.17
2023-01-17T11:10:40.911Z,226.67
2023-01-17T11:13:40.077Z,211.77
2023-01-17T11:16:38.349Z,212.43
2023-01-17T11:19:39.072Z,224.47
2023-01-17T11:22:37.990Z,223.07
2023-01-17T11:25:36.929Z,221.80
2023-01-17T11:28:36.721Z,201.73
2023-01-17T11:31:34.569Z,225.67
2023-01-17T11:34:34.054Z,198.40
2023-01-17T11:37:31.933Z,219.30
2023-01-17T11:40:38.333Z,201.27
2023-01-17T11:43:52.162Z,170.13
2023-01-17T11:47:08.923Z,214.57
2023-01-17T11:50:27.474Z,212.30
2023-01-17T11:53:41.371Z,205.27
2023-01-17T11:56:41.314Z,197.90
2023-01-17T11:59:43.733Z,173.37
2023-01-17T12:03:02.248Z,184.90
2023-01-17T12:06:13.515Z,175.37
2023-01-17T12:09:36.295Z,168.80
2023-01-17T12:13:05.939Z,182.70
2023-01-17T12:16:34.017Z,167.87
2023-01-17T12:19:55.093Z,198.17
2023-01-17T12:23:22.112Z,183.47
2023-01-17T12:26:31.480Z,165.87
2023-01-17T12:29:54.156Z,159.40
2023-01-17T12:33:15.613Z,165.77
2023-01-17T12:36:49.609Z,173.17
2023-01-17T12:39:57.897Z,160.00
2023-01-17T12:43:06.642Z,161.10
2023-01-17T12:46:34.307Z,158.60
2023-01-17T12:50:07.344Z,174.00
2023-01-17T12:53:31.566Z,177.07
2023-01-17T12:56:39.031Z,173.37
2023-01-17T12:59:57.085Z,161.07
2023-01-17T13:03:15.008Z,157.80
2023-01-17T13:06:24.887Z,186.03
2023-01-17T13:09:24.437Z,171.67
2023-01-17T13:12:23.243Z,196.07
2023-01-17T13:15:26.261Z,165.10
2023-01-17T13:18:30.065Z,170.15
2023-01-17T13:21:30.979Z,170.20
2023-01-17T13:24:51.792Z,162.30
2023-01-17T13:28:14.953Z,173.67
2023-01-17T13:31:36.944Z,166.17
2023-01-17T13:34:57.371Z,153.85
2023-01-17T13:38:11.524Z,164.27
2023-01-17T13:41:49.414Z,175.90
2023-01-17T13:44:47.533Z,160.63
2023-01-17T13:47:48.882Z,168.90
2023-01-17T13:50:51.319Z,192.73
2023-01-17T13:53:49.226Z,193.70
2023-01-17T13:56:48.072Z,164.73
2023-01-17T13:59:45.891Z,173.77
2023-01-17T14:02:46.452Z,186.33
2023-01-17T14:05:50.165Z,168.77
2023-01-17T14:08:49.475Z,169.90
2023-01-17T14:12:22.478Z,157.67
2023-01-17T14:15:25.435Z,147.53
2023-01-17T14:18:41.521Z,165.35
2023-01-17T14:21:39.277Z,170.37
2023-01-17T14:25:00.839Z,151.17
2023-01-17T14:28:03.768Z,152.47
2023-01-17T14:31:08.966Z,174.10
2023-01-17T14:34:14.544Z,155.43
2023-01-17T14:37:33.995Z,177.07
2023-01-17T14:40:36.326Z,165.60
2023-01-17T14:43:38.433Z,156.33
2023-01-17T14:46:36.544Z,146.63
2023-01-17T14:49:35.414Z,161.07
2023-01-17T14:52:33.380Z,154.83
2023-01-17T14:55:36.901Z,141.33
2023-01-17T14:58:36.904Z,134.93
2023-01-17T15:01:37.190Z,110.03
2023-01-17T15:04:40.038Z,122.63
2023-01-17T15:07:44.639Z,118.18
2023-01-17T15:10:55.004Z,111.47
2023-01-17T15:13:57.884Z,111.57
2023-01-17T15:16:58.880Z,118.90
2023-01-17T15:20:07.411Z,128.10
2023-01-17T15:23:05.786Z,121.43
2023-01-17T15:26:05.280Z,95.47
2023-01-17T15:29:09.808Z,96.53
2023-01-17T15:32:20.519Z,116.67
2023-01-17T15:35:19.574Z,100.20
2023-01-17T15:38:17.697Z,123.90
2023-01-17T15:41:17.600Z,106.10
2023-01-17T15:44:46.417Z,109.67
2023-01-17T15:47:45.808Z,93.90
2023-01-17T15:50:48.182Z,130.67
2023-01-17T15:53:45.930Z,122.57
2023-01-17T15:56:46.078Z,102.37
2023-01-17T15:59:51.941Z,105.30
2023-01-17T16:02:56.231Z,105.53
2023-01-17T16:05:57.375Z,124.20
2023-01-17T16:08:55.666Z,113.33
2023-01-17T16:11:55.665Z,86.10
2023-01-17T16:15:11.328Z,92.33
2023-01-17T16:18:24.861Z,109.30
2023-01-17T16:21:26.784Z,81.78
2023-01-17T16:24:25.971Z,94.90
2023-01-17T16:27:25.485Z,108.80
2023-01-17T16:30:23.208Z,102.90
2023-01-17T16:33:21.424Z,94.30
2023-01-17T16:36:21.861Z,87.30
2023-01-17T16:39:20.302Z,81.50
2023-01-17T16:42:18.377Z,89.97
2023-01-17T16:45:17.263Z,96.47
2023-01-17T16:48:19.231Z,89.03
2023-01-17T16:51:17.653Z,81.43
2023-01-17T16:54:17.130Z,104.60
2023-01-17T16:57:16.184Z,98.57
2023-01-17T17:00:14.408Z,127.83
2023-01-17T17:03:21.786Z,175.77
2023-01-17T17:06:20.545Z,111.27
2023-01-17T17:09:21.553Z,109.97
2023-01-17T17:12:19.396Z,132.27
2023-01-17T17:15:23.487Z,153.00
2023-01-17T17:18:21.873Z,176.70
2023-01-17T17:21:20.006Z,187.30
2023-01-17T17:24:18.090Z,209.37
2023-01-17T17:27:16.189Z,184.23
2023-01-17T17:30:14.553Z,169.73
2023-01-17T17:33:12.592Z,194.53
2023-01-17T17:36:10.689Z,148.90
2023-01-17T17:39:12.666Z,197.97
2023-01-17T17:42:11.824Z,203.47
2023-01-17T17:45:10.525Z,205.57
2023-01-17T17:48:08.404Z,160.20
2023-01-17T17:51:07.011Z,123.23
2023-01-17T17:54:10.059Z,129.57
2023-01-17T17:57:08.213Z,131.23
2023-01-17T18:00:07.145Z,128.47
2023-01-17T18:03:05.150Z,136.20
2023-01-17T18:06:04.922Z,135.50
2023-01-17T18:09:03.922Z,146.83
2023-01-17T18:12:03.332Z,147.03
2023-01-17T18:15:01.140Z,147.03
2023-01-17T18:17:59.467Z,144.93
2023-01-17T18:21:06.885Z,127.73
2023-01-17T18:24:09.076Z,123.13
2023-01-17T18:27:07.064Z,118.33
2023-01-17T18:30:05.191Z,120.80
2023-01-17T18:33:03.088Z,118.37
2023-01-17T18:36:02.707Z,97.27
2023-01-17T18:39:03.227Z,104.53
2023-01-17T18:42:01.253Z,116.47
2023-01-17T18:44:59.123Z,100.30
2023-01-17T18:47:57.015Z,95.80
2023-01-17T18:50:57.657Z,93.03
2023-01-17T18:53:55.367Z,103.97
2023-01-17T18:56:55.849Z,99.47
2023-01-17T18:59:54.118Z,95.30
2023-01-17T19:02:52.093Z,81.93
2023-01-17T19:05:50.040Z,83.27
2023-01-17T19:08:50.091Z,60.97
2023-01-17T19:11:47.948Z,66.83
2023-01-17T19:14:45.864Z,72.47
2023-01-17T19:17:43.567Z,59.03
2023-01-17T19:20:41.433Z,63.07
2023-01-17T19:23:39.972Z,92.13
2023-01-17T19:26:38.085Z,60.90
2023-01-17T19:29:36.726Z,75.50
2023-01-17T19:32:34.894Z,68.03
2023-01-17T19:35:32.923Z,56.60
2023-01-17T19:38:32.423Z,70.07
2023-01-17T19:41:31.152Z,58.27
2023-01-17T19:44:29.098Z,75.97
2023-01-17T19:47:26.826Z,108.20
2023-01-17T19:50:24.869Z,93.10
2023-01-17T19:53:23.966Z,139.93
2023-01-17T19:56:25.136Z,105.37
2023-01-17T19:59:24.022Z,83.47
2023-01-17T20:02:22.098Z,72.57
2023-01-17T20:05:20.071Z,79.10
2023-01-17T20:08:18.608Z,78.37
2023-01-17T20:11:20.001Z,89.00
2023-01-17T20:14:18.108Z,86.63
2023-01-17T20:17:16.098Z,85.93
2023-01-17T20:20:14.179Z,104.63
2023-01-17T20:23:12.041Z,80.77
2023-01-17T20:26:12.721Z,92.97
2023-01-17T20:29:15.534Z,113.03
2023-01-17T20:32:13.602Z,113.18
2023-01-17T20:35:13.320Z,129.67
2023-01-17T20:38:12.395Z,113.53
2023-01-17T20:41:27.350Z,95.97
2023-01-17T20:44:25.308Z,82.27
2023-01-17T20:47:23.385Z,104.60
2023-01-17T20:50:21.675Z,88.57
2023-01-17T20:53:22.162Z,102.50
2023-01-17T20:56:20.763Z,100.33
2023-01-17T20:59:21.982Z,109.10
2023-01-17T21:02:23.022Z,111.40
2023-01-17T21:05:21.060Z,90.17
2023-01-17T21:08:19.283Z,91.20
2023-01-17T21:11:20.034Z,65.57
2023-01-17T21:17:50.529Z,77.63
2023-01-17T21:20:49.139Z,85.43
2023-01-17T21:23:47.089Z,95.80
2023-01-17T21:26:46.408Z,139.07
2023-01-17T21:29:44.247Z,138.27
2023-01-17T21:32:42.289Z,131.03
2023-01-17T21:35:40.044Z,159.47
2023-01-17T21:38:39.411Z,136.63
2023-01-17T21:41:40.038Z,120.50
2023-01-17T21:44:38.706Z,119.10
2023-01-17T21:47:36.803Z,114.67
2023-01-17T21:50:35.339Z,110.83
2023-01-17T21:53:35.258Z,116.70
2023-01-17T21:56:48.524Z,87.90
2023-01-17T21:59:46.299Z,104.27
2023-01-17T22:02:49.348Z,75.07
2023-01-17T22:05:49.947Z,89.05
2023-01-17T22:08:48.285Z,71.97
2023-01-17T22:11:46.179Z,76.33
2023-01-17T22:14:44.146Z,86.60
2023-01-17T22:17:42.853Z,82.80
2023-01-17T22:20:42.001Z,81.87
2023-01-17T22:23:40.702Z,96.17
2023-01-17T22:26:41.744Z,74.70
2023-01-17T22:29:39.672Z,93.57
2023-01-17T22:32:37.642Z,81.57
2023-01-17T22:35:35.386Z,74.87
2023-01-17T22:38:34.333Z,75.67
2023-01-17T22:41:33.337Z,58.13
2023-01-17T22:44:31.258Z,62.20
2023-01-17T22:47:29.013Z,55.27
2023-01-17T22:50:26.882Z,60.80
2023-01-17T22:53:24.927Z,49.27
2023-01-17T22:56:25.276Z,71.70
2023-01-17T22:59:23.103Z,77.13
2023-01-17T23:02:21.096Z,57.43
2023-01-17T23:05:26.747Z,75.63
2023-01-17T23:08:24.573Z,67.83
2023-01-17T23:11:45.144Z,58.67
2023-01-17T23:14:58.285Z,53.27
2023-01-17T23:18:11.171Z,50.53
2023-01-17T23:24:07.500Z,30.00
2023-01-17T23:27:20.690Z,37.40
2023-01-17T23:30:21.228Z,41.13
2023-01-17T23:33:19.325Z,27.10
2023-01-17T23:36:17.134Z,41.93
2023-01-17T23:39:14.936Z,35.03
2023-01-17T23:42:27.901Z,54.27
2023-01-17T23:45:25.876Z,58.50
2023-01-17T23:48:26.680Z,75.27
2023-01-17T23:51:24.578Z,62.73
2023-01-17T23:54:22.287Z,71.17
2023-01-17T23:57:20.328Z,50.10
